createdAt,value
2019-04-23T00:01:49.289Z,6.10
2019-04-23T00:04:05.726Z,5.57
2019-04-23T00:06:53.761Z,5.47
2019-04-23T00:09:20.429Z,5.70
2019-04-23T00:11:57.724Z,5.13
2019-04-23T00:14:35.338Z,5.80
2019-04-23T00:16:57.765Z,5.77
2019-04-23T00:19:24.838Z,6.40
2019-04-23T00:22:28.954Z,6.40
2019-04-23T00:25:34.471Z,5.90
2019-04-23T00:27:47.699Z,5.30
2019-04-23T00:30:20.289Z,5.70
2019-04-23T00:32:42.695Z,5.77
2019-04-23T00:35:12.656Z,6.00
2019-04-23T00:37:51.456Z,5.87
2019-04-23T00:40:28.403Z,6.17
2019-04-23T00:42:53.542Z,5.47
2019-04-23T00:48:09.817Z,5.80
2019-04-23T00:50:44.726Z,6.10
2019-04-23T00:53:18.904Z,5.77
2019-04-23T00:55:49.070Z,5.87
2019-04-23T01:00:52.741Z,6.03
2019-04-23T01:03:25.193Z,5.67
2019-04-23T01:06:04.996Z,5.40
2019-04-23T01:08:38.837Z,6.00
2019-04-23T01:11:21.211Z,5.90
2019-04-23T01:13:53.051Z,6.27
2019-04-23T01:16:32.838Z,6.53
2019-04-23T01:19:20.731Z,6.30
2019-04-23T01:21:20.195Z,6.40
2019-04-23T01:24:19.241Z,5.60
2019-04-23T01:32:48.456Z,5.97
2019-04-23T01:37:41.269Z,5.83
2019-04-23T01:40:18.810Z,5.87
2019-04-23T01:43:02.964Z,6.20
2019-04-23T01:45:30.702Z,6.27
2019-04-23T01:48:00.166Z,5.87
2019-04-23T01:50:37.770Z,6.30
2019-04-23T01:55:44.042Z,6.10
2019-04-23T01:58:25.879Z,6.20
2019-04-23T02:00:47.523Z,5.80
2019-04-23T02:03:20.853Z,6.17
2019-04-23T02:05:55.501Z,6.20
2019-04-23T02:08:25.993Z,6.10
2019-04-23T02:11:02.999Z,6.07
2019-04-23T02:13:38.755Z,6.20
2019-04-23T02:16:17.777Z,6.63
2019-04-23T02:18:44.148Z,6.27
2019-04-23T02:21:15.394Z,5.77
2019-04-23T02:23:54.784Z,6.03
2019-04-23T02:26:35.656Z,6.03
2019-04-23T02:29:07.800Z,6.10
2019-04-23T02:31:58.330Z,6.50
2019-04-23T02:34:35.877Z,6.07
2019-04-23T02:36:57.267Z,6.37
2019-04-23T02:39:29.341Z,5.97
2019-04-23T02:42:18.975Z,6.17
2019-04-23T02:44:33.361Z,6.20
2019-04-23T02:52:18.450Z,6.13
2019-04-23T02:54:50.418Z,5.83
2019-04-23T02:57:24.701Z,6.13
2019-04-23T03:07:39.332Z,5.77
2019-04-23T03:10:08.163Z,6.23
2019-04-23T03:15:39.515Z,6.80
2019-04-23T03:18:39.278Z,7.23
2019-04-23T03:26:40.794Z,6.77
2019-04-23T03:29:06.084Z,6.40
2019-04-23T03:39:05.317Z,5.87
2019-04-23T03:41:50.363Z,6.03
2019-04-23T03:44:20.695Z,6.37
2019-04-23T03:46:51.425Z,6.60
2019-04-23T03:49:32.271Z,6.33
2019-04-23T03:54:45.264Z,5.63
2019-04-23T03:59:52.039Z,6.40
2019-04-23T04:07:29.451Z,6.87
2019-04-23T04:12:30.015Z,5.90
2019-04-23T04:22:46.568Z,5.87
2019-04-23T04:25:26.955Z,6.30
2019-04-23T04:30:31.938Z,6.40
2019-04-23T04:35:27.225Z,6.00
2019-04-23T04:38:18.126Z,6.87
2019-04-23T04:43:24.934Z,6.27
2019-04-23T04:46:05.390Z,6.67
2019-04-23T04:48:20.370Z,7.10
2019-04-23T04:51:00.287Z,6.67
2019-04-23T04:56:16.047Z,6.20
2019-04-23T04:58:43.955Z,6.63
2019-04-23T05:03:29.781Z,6.77
2019-04-23T05:08:58.609Z,6.80
2019-04-23T05:11:28.689Z,6.60
2019-04-23T05:19:15.511Z,7.13
2019-04-23T05:21:46.663Z,6.60
2019-04-23T05:24:14.862Z,6.80
2019-04-23T05:26:37.586Z,6.73
2019-04-23T05:31:54.978Z,6.60
2019-04-23T05:34:20.984Z,6.37
2019-04-23T05:37:00.291Z,7.27
2019-04-23T05:39:35.267Z,7.43
2019-04-23T05:42:04.388Z,7.27
2019-04-23T05:44:47.866Z,7.30
2019-04-23T05:47:25.609Z,7.70
2019-04-23T05:49:54.595Z,6.93
2019-04-23T05:52:24.031Z,7.37
2019-04-23T05:54:56.247Z,6.70
2019-04-23T05:57:28.550Z,7.20
2019-04-23T06:00:02.148Z,6.73
2019-04-23T06:02:43.708Z,7.80
2019-04-23T06:05:08.845Z,7.20
2019-04-23T06:07:51.277Z,7.63
2019-04-23T06:10:19.766Z,7.00
2019-04-23T06:12:50.936Z,6.80
2019-04-23T06:15:26.809Z,6.43
2019-04-23T06:18:01.814Z,7.07
2019-04-23T06:20:42.373Z,6.90
2019-04-23T06:23:21.341Z,6.80
2019-04-23T06:28:19.783Z,6.80
2019-04-23T06:35:57.279Z,7.57
2019-04-23T06:38:42.918Z,6.73
2019-04-23T06:41:06.820Z,6.93
2019-04-23T06:43:54.781Z,7.03
2019-04-23T06:46:21.249Z,7.00
2019-04-23T06:48:47.613Z,6.93
2019-04-23T06:53:59.917Z,6.90
2019-04-23T06:56:43.239Z,6.73
2019-04-23T06:59:12.421Z,7.37
2019-04-23T07:01:51.085Z,7.20
2019-04-23T07:07:13.675Z,5.20
2019-04-23T07:09:26.024Z,4.30
2019-04-23T07:11:55.560Z,3.20
2019-04-23T07:14:47.663Z,4.07
2019-04-23T07:17:10.372Z,3.80
2019-04-23T07:19:42.392Z,4.20
2019-04-23T07:22:16.405Z,3.83
2019-04-23T07:24:47.598Z,3.37
2019-04-23T07:30:03.194Z,5.10
2019-04-23T07:32:32.681Z,6.37
2019-04-23T07:35:07.089Z,6.73
2019-04-23T07:37:43.039Z,6.27
2019-04-23T07:43:22.777Z,5.40
2019-04-23T07:46:17.818Z,6.17
2019-04-23T07:48:40.575Z,5.50
2019-04-23T07:51:19.538Z,5.67
2019-04-23T07:53:56.396Z,6.17
2019-04-23T07:56:21.527Z,5.30
2019-04-23T07:58:58.425Z,5.37
2019-04-23T08:01:32.090Z,5.13
2019-04-23T08:04:04.696Z,5.63
2019-04-23T08:06:38.215Z,5.57
2019-04-23T08:09:20.584Z,9.03
2019-04-23T08:12:02.635Z,6.97
2019-04-23T08:14:20.238Z,7.17
2019-04-23T08:16:49.994Z,6.43
2019-04-23T08:19:36.907Z,7.40
2019-04-23T08:22:12.498Z,6.60
2019-04-23T08:25:11.030Z,6.80
2019-04-23T08:27:48.545Z,6.63
2019-04-23T08:30:15.875Z,5.83
2019-04-23T08:32:57.075Z,4.90
2019-04-23T08:35:26.712Z,4.93
2019-04-23T08:40:42.872Z,5.57
2019-04-23T08:43:36.798Z,5.63
2019-04-23T08:49:11.457Z,5.70
2019-04-23T08:51:44.494Z,5.33
2019-04-23T08:54:15.083Z,5.60
2019-04-23T08:56:47.912Z,5.93
2019-04-23T08:59:25.130Z,5.47
2019-04-23T09:02:07.772Z,5.20
2019-04-23T09:04:32.391Z,5.80
2019-04-23T09:07:04.521Z,5.53
2019-04-23T09:12:08.513Z,5.33
2019-04-23T09:14:45.041Z,5.80
2019-04-23T09:17:23.227Z,5.37
2019-04-23T09:20:08.573Z,5.80
2019-04-23T09:25:08.888Z,5.60
2019-04-23T09:27:37.932Z,5.23
2019-04-23T09:30:08.022Z,5.80
2019-04-23T09:32:53.213Z,6.27
2019-04-23T09:35:29.337Z,6.47
2019-04-23T09:38:39.467Z,6.10
2019-04-23T09:47:47.397Z,5.37
2019-04-23T09:50:26.226Z,6.53
2019-04-23T09:53:06.741Z,7.20
2019-04-23T09:58:06.026Z,6.23
2019-04-23T10:00:42.078Z,5.77
2019-04-23T10:02:59.772Z,6.50
2019-04-23T10:05:28.769Z,6.40
2019-04-23T10:08:01.656Z,6.13
2019-04-23T10:10:25.998Z,6.50
2019-04-23T10:12:58.198Z,6.00
2019-04-23T10:15:36.633Z,6.53
2019-04-23T10:18:04.654Z,6.17
2019-04-23T10:20:36.510Z,6.63
2019-04-23T10:23:08.431Z,6.57
2019-04-23T10:25:40.417Z,6.43
2019-04-23T10:28:35.806Z,6.67
2019-04-23T10:31:09.038Z,6.70
2019-04-23T10:33:42.220Z,6.20
2019-04-23T10:36:19.061Z,5.67
2019-04-23T10:38:56.084Z,5.70
2019-04-23T10:41:22.553Z,6.00
2019-04-23T10:44:00.637Z,7.00
2019-04-23T10:47:15.003Z,5.97
2019-04-23T10:50:00.159Z,7.13
2019-04-23T10:55:25.273Z,8.27
2019-04-23T10:57:34.560Z,7.43
2019-04-23T11:00:13.789Z,6.63
2019-04-23T11:02:51.760Z,6.63
2019-04-23T11:05:28.930Z,6.90
2019-04-23T11:07:41.967Z,6.70
2019-04-23T11:10:28.652Z,7.00
2019-04-23T11:13:17.539Z,7.27
2019-04-23T11:15:55.717Z,7.30
2019-04-23T11:18:34.170Z,7.17
2019-04-23T11:21:09.304Z,7.80
2019-04-23T11:23:31.464Z,6.93
2019-04-23T11:26:09.711Z,7.50
2019-04-23T11:28:38.440Z,7.53
2019-04-23T11:31:31.601Z,7.37
2019-04-23T11:36:47.893Z,6.90
2019-04-23T11:39:00.154Z,7.03
2019-04-23T11:41:48.954Z,7.10
2019-04-23T11:44:13.343Z,7.00
2019-04-23T11:49:29.561Z,6.43
2019-04-23T11:52:09.830Z,6.90
2019-04-23T11:54:24.187Z,6.77
2019-04-23T11:59:43.611Z,6.87
2019-04-23T12:02:41.761Z,5.70
2019-04-23T12:05:32.086Z,5.80
2019-04-23T12:08:22.582Z,6.03
2019-04-23T12:11:15.223Z,5.60
2019-04-23T12:16:00.737Z,7.60
2019-04-23T12:18:43.048Z,7.10
2019-04-23T12:21:28.359Z,6.80
2019-04-23T12:26:35.914Z,8.33
2019-04-23T12:31:41.605Z,7.80
2019-04-23T12:34:14.429Z,6.90
2019-04-23T12:39:34.086Z,6.27
2019-04-23T12:42:21.874Z,7.73
2019-04-23T12:44:39.271Z,7.83
2019-04-23T12:47:25.131Z,9.23
2019-04-23T12:52:25.453Z,7.37
2019-04-23T12:55:19.584Z,6.50
2019-04-23T13:02:44.189Z,7.40
2019-04-23T13:05:10.294Z,7.40
2019-04-23T13:07:44.876Z,7.10
2019-04-23T13:10:23.186Z,7.33
2019-04-23T13:18:03.102Z,6.80
2019-04-23T13:23:13.583Z,8.47
2019-04-23T13:31:06.642Z,7.10
2019-04-23T13:38:56.662Z,8.00
2019-04-23T13:44:06.066Z,9.03
2019-04-23T13:46:19.789Z,6.80
2019-04-23T13:48:52.568Z,6.77
2019-04-23T13:51:30.606Z,6.77
2019-04-23T13:57:12.601Z,5.90
2019-04-23T13:59:21.866Z,6.63
2019-04-23T14:01:46.923Z,7.30
2019-04-23T14:04:50.622Z,11.63
2019-04-23T14:07:23.384Z,7.73
2019-04-23T14:10:07.913Z,7.33
2019-04-23T14:12:32.017Z,7.10
2019-04-23T14:15:06.478Z,7.07
2019-04-23T14:17:47.795Z,7.00
2019-04-23T14:20:09.927Z,9.00
2019-04-23T14:23:03.244Z,10.77
2019-04-23T14:25:22.445Z,8.90
2019-04-23T14:28:00.169Z,8.87
2019-04-23T14:30:29.475Z,8.90
2019-04-23T14:33:03.458Z,7.60
2019-04-23T14:38:17.782Z,8.37
2019-04-23T14:40:54.142Z,8.77
2019-04-23T14:46:23.115Z,8.67
2019-04-23T14:48:23.115Z,9.77
2019-04-23T14:51:11.128Z,7.93
2019-04-23T14:53:33.818Z,8.23
2019-04-23T14:56:09.449Z,8.67
2019-04-23T14:58:50.510Z,8.50
2019-04-23T15:03:50.606Z,8.20
2019-04-23T15:06:27.778Z,8.30
2019-04-23T15:09:19.195Z,8.13
2019-04-23T15:11:35.726Z,7.80
2019-04-23T15:14:28.445Z,8.53
2019-04-23T15:16:49.785Z,8.40
2019-04-23T15:22:10.055Z,8.63
2019-04-23T15:24:43.858Z,8.60
2019-04-23T15:29:30.194Z,8.73
2019-04-23T15:32:18.661Z,8.47
2019-04-23T15:34:57.501Z,8.57
2019-04-23T15:40:02.338Z,8.03
2019-04-23T15:42:29.594Z,8.57
2019-04-23T15:45:07.965Z,7.63
2019-04-23T15:55:24.671Z,7.67
2019-04-23T15:58:08.863Z,7.50
2019-04-23T16:00:31.579Z,7.20
2019-04-23T16:02:39.261Z,7.47
2019-04-23T16:05:12.836Z,7.57
2019-04-23T16:08:01.759Z,7.17
2019-04-23T16:13:18.419Z,10.60
2019-04-23T16:16:02.598Z,10.23
2019-04-23T16:18:55.536Z,9.80
2019-04-23T16:21:31.891Z,8.43
2019-04-23T16:23:55.392Z,8.10
2019-04-23T16:26:34.238Z,7.87
2019-04-23T16:31:47.777Z,7.80
2019-04-23T16:36:48.447Z,7.07
2019-04-23T16:39:18.965Z,7.83
2019-04-23T16:41:57.486Z,7.13
2019-04-23T16:44:31.215Z,7.07
2019-04-23T16:47:06.252Z,7.60
2019-04-23T16:52:09.592Z,7.13
2019-04-23T16:54:53.542Z,6.80
2019-04-23T16:57:35.686Z,7.00
2019-04-23T17:00:03.004Z,6.97
2019-04-23T17:02:26.106Z,7.07
2019-04-23T17:04:57.925Z,7.07
2019-04-23T17:07:20.194Z,7.33
2019-04-23T17:10:07.883Z,6.83
2019-04-23T17:12:35.553Z,7.47
2019-04-23T17:15:10.891Z,6.77
2019-04-23T17:17:37.977Z,7.27
2019-04-23T17:20:22.037Z,7.07
2019-04-23T17:25:26.376Z,7.17
2019-04-23T17:28:04.974Z,7.30
2019-04-23T17:30:32.394Z,6.73
2019-04-23T17:33:23.966Z,7.27
2019-04-23T17:36:18.311Z,7.37
2019-04-23T17:38:49.678Z,7.93
2019-04-23T17:41:31.207Z,6.73
2019-04-23T17:44:14.311Z,7.10
2019-04-23T17:46:34.934Z,7.60
2019-04-23T17:49:10.858Z,6.90
2019-04-23T17:51:47.014Z,7.07
2019-04-23T17:54:19.500Z,7.17
2019-04-23T17:57:10.803Z,7.07
2019-04-23T17:59:55.665Z,8.87
2019-04-23T18:02:46.257Z,10.53
2019-04-23T18:07:38.086Z,12.57
2019-04-23T18:10:20.074Z,11.97
2019-04-23T18:12:43.583Z,11.23
2019-04-23T18:15:04.863Z,11.33
2019-04-23T18:17:53.043Z,11.93
2019-04-23T18:20:26.256Z,11.50
2019-04-23T18:23:18.364Z,11.10
2019-04-23T18:28:15.029Z,11.77
2019-04-23T18:31:19.805Z,13.13
2019-04-23T18:36:35.312Z,11.03
2019-04-23T18:39:14.379Z,11.03
2019-04-23T18:41:50.419Z,17.77
2019-04-23T18:44:27.742Z,14.67
2019-04-23T18:47:02.451Z,11.87
2019-04-23T18:49:35.428Z,11.57
2019-04-23T18:52:06.595Z,11.90
2019-04-23T18:54:34.710Z,11.60
2019-04-23T18:59:55.087Z,12.87
2019-04-23T19:02:44.178Z,11.47
2019-04-23T19:08:38.158Z,12.10
2019-04-23T19:10:52.268Z,12.00
2019-04-23T19:13:31.147Z,10.23
2019-04-23T19:15:53.039Z,10.43
2019-04-23T19:18:45.172Z,10.50
2019-04-23T19:23:47.252Z,9.87
2019-04-23T19:26:41.815Z,9.30
2019-04-23T19:31:42.174Z,8.70
2019-04-23T19:36:54.806Z,7.60
2019-04-23T19:39:26.451Z,7.37
2019-04-23T19:42:03.687Z,7.03
2019-04-23T19:44:24.479Z,6.67
2019-04-23T19:47:01.751Z,6.47
2019-04-23T19:49:35.027Z,6.00
2019-04-23T19:52:03.517Z,5.90
2019-04-23T19:54:52.572Z,5.60
2019-04-23T19:57:19.028Z,6.23
2019-04-23T19:59:51.191Z,6.50
2019-04-23T20:02:33.867Z,6.20
2019-04-23T20:04:55.754Z,5.93
2019-04-23T20:07:43.198Z,5.80
2019-04-23T20:10:03.420Z,5.70
2019-04-23T20:12:46.448Z,6.43
2019-04-23T20:15:29.922Z,6.00
2019-04-23T20:17:45.980Z,6.30
2019-04-23T20:20:18.387Z,5.97
2019-04-23T20:25:56.469Z,6.00
2019-04-23T20:28:14.983Z,6.10
2019-04-23T20:32:06.026Z,6.43
2019-04-23T20:34:19.587Z,9.07
2019-04-23T20:36:40.805Z,8.97
2019-04-23T20:42:09.816Z,7.07
2019-04-23T20:49:42.989Z,6.00
2019-04-23T20:52:07.233Z,5.83
2019-04-23T20:57:43.545Z,5.80
2019-04-23T21:00:08.963Z,6.10
2019-04-23T21:03:18.255Z,5.87
2019-04-23T21:13:28.608Z,5.53
2019-04-23T21:15:46.275Z,6.23
2019-04-23T21:18:22.058Z,6.00
2019-04-23T21:21:08.088Z,5.50
2019-04-23T21:23:48.074Z,5.57
2019-04-23T21:26:07.709Z,5.83
2019-04-23T21:28:44.078Z,5.90
2019-04-23T21:31:11.544Z,5.37
2019-04-23T21:34:03.219Z,5.47
2019-04-23T21:39:06.152Z,5.90
2019-04-23T21:41:52.478Z,5.53
2019-04-23T21:47:01.224Z,6.23
2019-04-23T21:52:05.033Z,6.60
2019-04-23T21:54:33.355Z,6.47
2019-04-23T21:57:01.669Z,6.57
2019-04-23T21:59:42.980Z,6.70
2019-04-23T22:02:13.097Z,6.90
2019-04-23T22:07:25.486Z,7.17
2019-04-23T22:09:57.712Z,7.17
2019-04-23T22:12:33.467Z,7.13
2019-04-23T22:14:57.707Z,7.33
2019-04-23T22:17:39.337Z,8.07
2019-04-23T22:20:21.052Z,8.60
2019-04-23T22:22:56.348Z,10.27
2019-04-23T22:25:13.440Z,11.07
2019-04-23T22:27:56.191Z,10.33
2019-04-23T22:30:30.281Z,11.37
2019-04-23T22:33:02.960Z,16.83
2019-04-23T22:35:37.810Z,18.30
2019-04-23T22:40:41.489Z,14.10
2019-04-23T22:43:20.306Z,12.53
2019-04-23T22:45:59.932Z,12.07
2019-04-23T22:48:23.699Z,10.07
2019-04-23T22:51:06.658Z,10.00
2019-04-23T22:53:41.728Z,10.27
2019-04-23T22:58:56.400Z,11.00
2019-04-23T23:01:19.655Z,10.20
2019-04-23T23:03:58.810Z,8.73
2019-04-23T23:06:43.021Z,8.90
2019-04-23T23:09:22.088Z,11.20
2019-04-23T23:11:43.917Z,14.07
2019-04-23T23:14:15.852Z,15.60
2019-04-23T23:19:29.892Z,16.73
2019-04-23T23:24:27.287Z,16.47
2019-04-23T23:26:57.480Z,15.27
2019-04-23T23:29:28.239Z,13.73
2019-04-23T23:32:07.413Z,12.33
2019-04-23T23:37:15.580Z,10.90
2019-04-23T23:39:56.986Z,10.07
2019-04-23T23:42:28.178Z,9.60
2019-04-23T23:45:01.931Z,8.67
2019-04-23T23:47:31.681Z,8.90
2019-04-23T23:50:17.839Z,8.80
2019-04-23T23:52:48.756Z,8.23
2019-04-23T23:55:15.774Z,8.67
2019-04-23T23:57:51.046Z,12.00
